sensor_id;sensor_type;location;lat;lon;timestamp;temperature;humidity
45207;DHT22;30950;53.086;21.576;2022-07-01T00:01:45;24.40;99.90
45207;DHT22;30950;53.086;21.576;2022-07-01T00:04:14;24.40;99.90
45207;DHT22;30950;53.086;21.576;2022-07-01T00:06:42;24.30;99.90
45207;DHT22;30950;53.086;21.576;2022-07-01T00:09:09;24.30;99.90
45207;DHT22;30950;53.086;21.576;2022-07-01T00:11:36;24.30;99.90
45207;DHT22;30950;53.086;21.576;2022-07-01T00:14:04;24.30;99.90
45207;DHT22;30950;53.086;21.576;2022-07-01T00:16:31;24.20;99.90
45207;DHT22;30950;53.086;21.576;2022-07-01T00:18:59;24.20;99.90
45207;DHT22;30950;53.086;21.576;2022-07-01T00:21:26;24.20;99.90
45207;DHT22;30950;53.086;21.576;2022-07-01T00:23:54;24.10;99.90
45207;DHT22;30950;53.086;21.576;2022-07-01T00:26:21;24.10;99.90
45207;DHT22;30950;53.086;21.576;2022-07-01T00:28:48;24.10;99.90
45207;DHT22;30950;53.086;21.576;2022-07-01T00:31:16;24.10;99.90
45207;DHT22;30950;53.086;21.576;2022-07-01T00:33:43;24.10;99.90
45207;DHT22;30950;53.086;21.576;2022-07-01T00:36:10;24.10;99.90
45207;DHT22;30950;53.086;21.576;2022-07-01T00:38:38;24.10;99.90
45207;DHT22;30950;53.086;21.576;2022-07-01T00:41:05;24.10;99.90
45207;DHT22;30950;53.086;21.576;2022-07-01T00:43:36;24.10;99.90
45207;DHT22;30950;53.086;21.576;2022-07-01T00:46:21;24.10;99.90
45207;DHT22;30950;53.086;21.576;2022-07-01T00:48:50;24.10;99.90
45207;DHT22;30950;53.086;21.576;2022-07-01T00:51:18;24.10;99.90
45207;DHT22;30950;53.086;21.576;2022-07-01T00:53:48;24.00;99.90
45207;DHT22;30950;53.086;21.576;2022-07-01T00:56:15;24.00;99.90
45207;DHT22;30950;53.086;21.576;2022-07-01T00:58:43;24.00;99.90
45207;DHT22;30950;53.086;21.576;2022-07-01T01:01:10;24.00;99.90
45207;DHT22;30950;53.086;21.576;2022-07-01T01:03:37;24.00;99.90
45207;DHT22;30950;53.086;21.576;2022-07-01T01:06:05;24.00;99.90
45207;DHT22;30950;53.086;21.576;2022-07-01T01:08:32;23.90;99.90
45207;DHT22;30950;53.086;21.576;2022-07-01T01:11:00;23.90;99.90
45207;DHT22;30950;53.086;21.576;2022-07-01T01:13:27;23.90;99.90
45207;DHT22;30950;53.086;21.576;2022-07-01T01:15:54;23.90;99.90
45207;DHT22;30950;53.086;21.576;2022-07-01T01:18:21;23.90;99.90
45207;DHT22;30950;53.086;21.576;2022-07-01T01:20:49;23.90;99.90
45207;DHT22;30950;53.086;21.576;2022-07-01T01:23:17;23.90;99.90
45207;DHT22;30950;53.086;21.576;2022-07-01T01:25:47;23.80;99.90
45207;DHT22;30950;53.086;21.576;2022-07-01T01:28:14;23.80;99.90
45207;DHT22;30950;53.086;21.576;2022-07-01T01:30:42;23.80;99.90
45207;DHT22;30950;53.086;21.576;2022-07-01T01:33:10;23.80;99.90
45207;DHT22;30950;53.086;21.576;2022-07-01T01:35:38;23.80;99.90
45207;DHT22;30950;53.086;21.576;2022-07-01T01:38:06;23.70;99.90
45207;DHT22;30950;53.086;21.576;2022-07-01T01:40:33;23.70;99.90
45207;DHT22;30950;53.086;21.576;2022-07-01T01:43:00;23.70;99.90
45207;DHT22;30950;53.086;21.576;2022-07-01T01:45:28;23.70;99.90
45207;DHT22;30950;53.086;21.576;2022-07-01T01:47:55;23.70;99.90
45207;DHT22;30950;53.086;21.576;2022-07-01T01:50:22;23.70;99.90
45207;DHT22;30950;53.086;21.576;2022-07-01T01:52:50;23.70;99.90
45207;DHT22;30950;53.086;21.576;2022-07-01T01:55:17;23.70;99.90
45207;DHT22;30950;53.086;21.576;2022-07-01T01:57:44;23.70;99.90
45207;DHT22;30950;53.086;21.576;2022-07-01T02:00:13;23.70;99.90
45207;DHT22;30950;53.086;21.576;2022-07-01T02:02:40;23.60;99.90
45207;DHT22;30950;53.086;21.576;2022-07-01T02:05:10;23.60;99.90
45207;DHT22;30950;53.086;21.576;2022-07-01T02:07:38;23.60;99.90
45207;DHT22;30950;53.086;21.576;2022-07-01T02:10:06;23.60;99.90
45207;DHT22;30950;53.086;21.576;2022-07-01T02:12:34;23.60;99.90
45207;DHT22;30950;53.086;21.576;2022-07-01T02:15:01;23.60;99.90
45207;DHT22;30950;53.086;21.576;2022-07-01T02:17:28;23.60;99.90
45207;DHT22;30950;53.086;21.576;2022-07-01T02:19:56;23.60;99.90
45207;DHT22;30950;53.086;21.576;2022-07-01T02:22:23;23.60;99.90
45207;DHT22;30950;53.086;21.576;2022-07-01T02:24:50;23.60;99.90
45207;DHT22;30950;53.086;21.576;2022-07-01T02:27:17;23.60;99.90
45207;DHT22;30950;53.086;21.576;2022-07-01T02:29:46;23.60;99.90
45207;DHT22;30950;53.086;21.576;2022-07-01T02:32:13;23.60;99.90
45207;DHT22;30950;53.086;21.576;2022-07-01T02:34:40;23.60;99.90
45207;DHT22;30950;53.086;21.576;2022-07-01T02:37:08;23.70;99.90
45207;DHT22;30950;53.086;21.576;2022-07-01T02:39:35;23.70;99.90
45207;DHT22;30950;53.086;21.576;2022-07-01T02:42:03;23.80;99.90
45207;DHT22;30950;53.086;21.576;2022-07-01T02:44:49;23.70;99.90
45207;DHT22;30950;53.086;21.576;2022-07-01T02:47:16;23.70;99.90
45207;DHT22;30950;53.086;21.576;2022-07-01T02:49:43;23.80;99.90
45207;DHT22;30950;53.086;21.576;2022-07-01T02:52:10;23.80;99.90
45207;DHT22;30950;53.086;21.576;2022-07-01T02:54:38;23.80;99.90
45207;DHT22;30950;53.086;21.576;2022-07-01T02:57:05;23.80;99.90
45207;DHT22;30950;53.086;21.576;2022-07-01T02:59:33;23.80;99.90
45207;DHT22;30950;53.086;21.576;2022-07-01T03:02:00;23.80;99.90
45207;DHT22;30950;53.086;21.576;2022-07-01T03:04:27;23.80;99.90
45207;DHT22;30950;53.086;21.576;2022-07-01T03:06:55;23.80;99.90
45207;DHT22;30950;53.086;21.576;2022-07-01T03:09:22;23.80;99.90
45207;DHT22;30950;53.086;21.576;2022-07-01T03:11:49;23.80;99.90
45207;DHT22;30950;53.086;21.576;2022-07-01T03:14:17;23.80;99.90
45207;DHT22;30950;53.086;21.576;2022-07-01T03:16:44;23.70;99.90
45207;DHT22;30950;53.086;21.576;2022-07-01T03:19:16;23.70;99.90
45207;DHT22;30950;53.086;21.576;2022-07-01T03:21:44;23.70;99.90
45207;DHT22;30950;53.086;21.576;2022-07-01T03:24:11;23.70;99.90
45207;DHT22;30950;53.086;21.576;2022-07-01T03:26:38;23.70;99.90
45207;DHT22;30950;53.086;21.576;2022-07-01T03:29:05;23.70;99.90
45207;DHT22;30950;53.086;21.576;2022-07-01T03:31:32;23.60;99.90
45207;DHT22;30950;53.086;21.576;2022-07-01T03:34:00;23.70;99.90
45207;DHT22;30950;53.086;21.576;2022-07-01T03:36:27;23.70;99.90
45207;DHT22;30950;53.086;21.576;2022-07-01T03:38:54;23.70;99.90
45207;DHT22;30950;53.086;21.576;2022-07-01T03:41:21;23.70;99.90
45207;DHT22;30950;53.086;21.576;2022-07-01T03:43:49;23.70;99.90
45207;DHT22;30950;53.086;21.576;2022-07-01T03:46:16;23.70;99.90
45207;DHT22;30950;53.086;21.576;2022-07-01T03:48:43;23.60;99.90
45207;DHT22;30950;53.086;21.576;2022-07-01T03:51:11;23.60;99.90
45207;DHT22;30950;53.086;21.576;2022-07-01T03:53:38;23.60;99.90
45207;DHT22;30950;53.086;21.576;2022-07-01T03:56:24;23.60;99.90
45207;DHT22;30950;53.086;21.576;2022-07-01T03:58:51;23.70;99.90
45207;DHT22;30950;53.086;21.576;2022-07-01T04:01:18;23.60;99.90
45207;DHT22;30950;53.086;21.576;2022-07-01T04:03:46;23.70;99.90
45207;DHT22;30950;53.086;21.576;2022-07-01T04:06:14;23.70;99.90
45207;DHT22;30950;53.086;21.576;2022-07-01T04:08:42;23.70;99.90
45207;DHT22;30950;53.086;21.576;2022-07-01T04:11:09;23.70;99.90
45207;DHT22;30950;53.086;21.576;2022-07-01T04:13:37;23.80;99.90
45207;DHT22;30950;53.086;21.576;2022-07-01T04:16:04;23.80;99.90
45207;DHT22;30950;53.086;21.576;2022-07-01T04:18:32;23.80;99.90
45207;DHT22;30950;53.086;21.576;2022-07-01T04:21:00;23.80;99.90
45207;DHT22;30950;53.086;21.576;2022-07-01T04:23:46;23.90;99.90
45207;DHT22;30950;53.086;21.576;2022-07-01T04:26:13;23.90;99.90
45207;DHT22;30950;53.086;21.576;2022-07-01T04:29:00;23.90;99.90
45207;DHT22;30950;53.086;21.576;2022-07-01T04:31:27;24.00;99.90
45207;DHT22;30950;53.086;21.576;2022-07-01T04:33:55;24.10;99.90
45207;DHT22;30950;53.086;21.576;2022-07-01T04:36:22;24.10;99.90
45207;DHT22;30950;53.086;21.576;2022-07-01T04:38:49;24.20;99.90
45207;DHT22;30950;53.086;21.576;2022-07-01T04:41:17;24.20;99.90
45207;DHT22;30950;53.086;21.576;2022-07-01T04:44:03;24.30;99.90
45207;DHT22;30950;53.086;21.576;2022-07-01T04:46:31;24.30;99.90
45207;DHT22;30950;53.086;21.576;2022-07-01T04:48:58;24.30;99.90
45207;DHT22;30950;53.086;21.576;2022-07-01T04:51:26;24.40;99.90
45207;DHT22;30950;53.086;21.576;2022-07-01T04:53:53;24.40;99.90
45207;DHT22;30950;53.086;21.576;2022-07-01T04:56:21;24.50;99.90
45207;DHT22;30950;53.086;21.576;2022-07-01T04:58:48;24.50;99.90
45207;DHT22;30950;53.086;21.576;2022-07-01T05:01:17;24.60;99.90
45207;DHT22;30950;53.086;21.576;2022-07-01T05:03:44;24.60;99.90
45207;DHT22;30950;53.086;21.576;2022-07-01T05:06:12;24.70;99.90
45207;DHT22;30950;53.086;21.576;2022-07-01T05:08:39;24.70;99.90
45207;DHT22;30950;53.086;21.576;2022-07-01T05:11:06;24.80;99.90
45207;DHT22;30950;53.086;21.576;2022-07-01T05:13:34;24.90;99.90
45207;DHT22;30950;53.086;21.576;2022-07-01T05:16:02;25.10;99.90
45207;DHT22;30950;53.086;21.576;2022-07-01T05:18:30;25.10;99.90
45207;DHT22;30950;53.086;21.576;2022-07-01T05:21:16;25.20;99.90
45207;DHT22;30950;53.086;21.576;2022-07-01T05:24:02;25.30;99.90
45207;DHT22;30950;53.086;21.576;2022-07-01T05:26:30;25.40;99.90
45207;DHT22;30950;53.086;21.576;2022-07-01T05:28:57;25.50;99.90
45207;DHT22;30950;53.086;21.576;2022-07-01T05:31:25;25.60;99.90
45207;DHT22;30950;53.086;21.576;2022-07-01T05:33:52;25.70;99.90
45207;DHT22;30950;53.086;21.576;2022-07-01T05:36:21;25.80;99.90
45207;DHT22;30950;53.086;21.576;2022-07-01T05:38:48;25.90;99.90
45207;DHT22;30950;53.086;21.576;2022-07-01T05:41:15;26.00;99.90
45207;DHT22;30950;53.086;21.576;2022-07-01T05:43:43;26.20;99.90
45207;DHT22;30950;53.086;21.576;2022-07-01T05:46:10;26.30;99.90
45207;DHT22;30950;53.086;21.576;2022-07-01T05:48:38;26.40;99.90
45207;DHT22;30950;53.086;21.576;2022-07-01T05:51:05;26.50;99.90
45207;DHT22;30950;53.086;21.576;2022-07-01T05:53:34;26.60;99.90
45207;DHT22;30950;53.086;21.576;2022-07-01T05:56:02;26.60;99.90
45207;DHT22;30950;53.086;21.576;2022-07-01T05:58:29;26.70;99.90
45207;DHT22;30950;53.086;21.576;2022-07-01T06:00:56;26.70;99.90
45207;DHT22;30950;53.086;21.576;2022-07-01T06:03:35;26.80;99.90
45207;DHT22;30950;53.086;21.576;2022-07-01T06:06:02;26.90;99.90
45207;DHT22;30950;53.086;21.576;2022-07-01T06:08:29;27.10;99.90
45207;DHT22;30950;53.086;21.576;2022-07-01T06:10:57;27.10;99.90
45207;DHT22;30950;53.086;21.576;2022-07-01T06:13:24;27.30;99.90
45207;DHT22;30950;53.086;21.576;2022-07-01T06:15:51;27.40;99.90
45207;DHT22;30950;53.086;21.576;2022-07-01T06:18:19;27.50;99.90
45207;DHT22;30950;53.086;21.576;2022-07-01T06:20:46;27.50;99.90
45207;DHT22;30950;53.086;21.576;2022-07-01T06:23:14;27.60;99.90
45207;DHT22;30950;53.086;21.576;2022-07-01T06:25:41;27.80;99.90
45207;DHT22;30950;53.086;21.576;2022-07-01T06:28:08;27.90;99.90
45207;DHT22;30950;53.086;21.576;2022-07-01T06:30:35;28.00;99.90
45207;DHT22;30950;53.086;21.576;2022-07-01T06:33:03;27.90;99.90
45207;DHT22;30950;53.086;21.576;2022-07-01T06:35:30;27.90;99.90
45207;DHT22;30950;53.086;21.576;2022-07-01T06:37:57;27.80;99.90
45207;DHT22;30950;53.086;21.576;2022-07-01T06:40:30;27.80;99.90
45207;DHT22;30950;53.086;21.576;2022-07-01T06:42:57;27.80;99.90
45207;DHT22;30950;53.086;21.576;2022-07-01T06:45:24;27.80;99.90
45207;DHT22;30950;53.086;21.576;2022-07-01T06:47:52;27.90;99.90
45207;DHT22;30950;53.086;21.576;2022-07-01T06:50:19;27.90;99.90
45207;DHT22;30950;53.086;21.576;2022-07-01T06:52:46;28.00;99.90
45207;DHT22;30950;53.086;21.576;2022-07-01T06:55:13;28.00;99.70
45207;DHT22;30950;53.086;21.576;2022-07-01T06:57:41;28.10;99.40
45207;DHT22;30950;53.086;21.576;2022-07-01T07:00:08;28.10;99.20
45207;DHT22;30950;53.086;21.576;2022-07-01T07:02:37;28.10;98.80
45207;DHT22;30950;53.086;21.576;2022-07-01T07:05:04;28.20;98.90
45207;DHT22;30950;53.086;21.576;2022-07-01T07:07:32;28.20;98.90
45207;DHT22;30950;53.086;21.576;2022-07-01T07:09:59;28.30;98.90
45207;DHT22;30950;53.086;21.576;2022-07-01T07:12:26;28.30;98.70
45207;DHT22;30950;53.086;21.576;2022-07-01T07:14:54;28.40;98.40
45207;DHT22;30950;53.086;21.576;2022-07-01T07:17:21;28.40;98.00
45207;DHT22;30950;53.086;21.576;2022-07-01T07:19:48;28.50;97.70
45207;DHT22;30950;53.086;21.576;2022-07-01T07:22:16;28.60;97.70
45207;DHT22;30950;53.086;21.576;2022-07-01T07:24:43;28.60;97.90
45207;DHT22;30950;53.086;21.576;2022-07-01T07:27:10;28.70;97.90
45207;DHT22;30950;53.086;21.576;2022-07-01T07:29:37;28.80;97.90
45207;DHT22;30950;53.086;21.576;2022-07-01T07:32:05;28.90;97.50
45207;DHT22;30950;53.086;21.576;2022-07-01T07:34:32;29.00;97.10
45207;DHT22;30950;53.086;21.576;2022-07-01T07:37:02;29.10;96.50
45207;DHT22;30950;53.086;21.576;2022-07-01T07:39:29;29.10;96.10
45207;DHT22;30950;53.086;21.576;2022-07-01T07:41:59;29.20;95.70
45207;DHT22;30950;53.086;21.576;2022-07-01T07:44:27;29.30;95.70
45207;DHT22;30950;53.086;21.576;2022-07-01T07:46:54;29.30;95.50
45207;DHT22;30950;53.086;21.576;2022-07-01T07:49:24;29.40;95.40
45207;DHT22;30950;53.086;21.576;2022-07-01T07:51:51;29.40;94.90
45207;DHT22;30950;53.086;21.576;2022-07-01T07:54:19;29.50;94.40
45207;DHT22;30950;53.086;21.576;2022-07-01T07:56:46;29.70;94.30
45207;DHT22;30950;53.086;21.576;2022-07-01T07:59:14;29.70;93.90
45207;DHT22;30950;53.086;21.576;2022-07-01T08:01:41;29.80;93.40
45207;DHT22;30950;53.086;21.576;2022-07-01T08:04:08;29.90;93.60
45207;DHT22;30950;53.086;21.576;2022-07-01T08:06:36;30.10;93.30
45207;DHT22;30950;53.086;21.576;2022-07-01T08:09:03;30.20;93.00
45207;DHT22;30950;53.086;21.576;2022-07-01T08:11:30;30.30;92.30
45207;DHT22;30950;53.086;21.576;2022-07-01T08:13:58;30.40;92.10
45207;DHT22;30950;53.086;21.576;2022-07-01T08:16:25;30.50;90.90
45207;DHT22;30950;53.086;21.576;2022-07-01T08:18:53;30.60;90.20
45207;DHT22;30950;53.086;21.576;2022-07-01T08:21:20;30.70;89.70
45207;DHT22;30950;53.086;21.576;2022-07-01T08:23:48;30.80;87.10
45207;DHT22;30950;53.086;21.576;2022-07-01T08:26:15;30.90;87.60
45207;DHT22;30950;53.086;21.576;2022-07-01T08:28:44;31.00;86.40
45207;DHT22;30950;53.086;21.576;2022-07-01T08:31:12;31.20;84.40
45207;DHT22;30950;53.086;21.576;2022-07-01T08:33:40;31.30;84.70
45207;DHT22;30950;53.086;21.576;2022-07-01T08:36:08;31.40;84.60
45207;DHT22;30950;53.086;21.576;2022-07-01T08:38:37;31.50;80.60
45207;DHT22;30950;53.086;21.576;2022-07-01T08:41:04;31.60;80.30
45207;DHT22;30950;53.086;21.576;2022-07-01T08:43:32;31.60;79.30
45207;DHT22;30950;53.086;21.576;2022-07-01T08:46:01;31.70;78.50
45207;DHT22;30950;53.086;21.576;2022-07-01T08:48:30;31.70;77.10
45207;DHT22;30950;53.086;21.576;2022-07-01T08:50:57;31.80;77.20
45207;DHT22;30950;53.086;21.576;2022-07-01T08:53:25;31.80;76.40
45207;DHT22;30950;53.086;21.576;2022-07-01T08:55:52;31.80;76.20
45207;DHT22;30950;53.086;21.576;2022-07-01T08:58:40;31.90;74.90
45207;DHT22;30950;53.086;21.576;2022-07-01T09:01:23;31.90;73.90
45207;DHT22;30950;53.086;21.576;2022-07-01T09:03:53;32.00;73.30
45207;DHT22;30950;53.086;21.576;2022-07-01T09:06:23;32.00;73.40
45207;DHT22;30950;53.086;21.576;2022-07-01T09:08:50;32.00;73.30
45207;DHT22;30950;53.086;21.576;2022-07-01T09:11:23;32.00;72.80
45207;DHT22;30950;53.086;21.576;2022-07-01T09:14:17;32.20;73.10
45207;DHT22;30950;53.086;21.576;2022-07-01T09:16:47;32.30;72.70
45207;DHT22;30950;53.086;21.576;2022-07-01T09:19:20;32.40;72.20
45207;DHT22;30950;53.086;21.576;2022-07-01T09:22:02;32.40;71.90
45207;DHT22;30950;53.086;21.576;2022-07-01T09:24:39;32.50;72.10
45207;DHT22;30950;53.086;21.576;2022-07-01T09:27:12;32.60;71.60
45207;DHT22;30950;53.086;21.576;2022-07-01T09:29:46;32.60;70.60
45207;DHT22;30950;53.086;21.576;2022-07-01T09:32:22;32.70;70.20
45207;DHT22;30950;53.086;21.576;2022-07-01T09:34:51;32.70;69.70
45207;DHT22;30950;53.086;21.576;2022-07-01T09:37:24;32.80;69.20
45207;DHT22;30950;53.086;21.576;2022-07-01T09:39:53;32.80;68.00
45207;DHT22;30950;53.086;21.576;2022-07-01T09:42:23;32.80;68.50
45207;DHT22;30950;53.086;21.576;2022-07-01T09:47:35;33.00;65.60
45207;DHT22;30950;53.086;21.576;2022-07-01T09:50:08;33.00;64.60
45207;DHT22;30950;53.086;21.576;2022-07-01T09:52:39;33.10;64.20
45207;DHT22;30950;53.086;21.576;2022-07-01T09:55:17;33.20;63.60
45207;DHT22;30950;53.086;21.576;2022-07-01T09:57:44;33.20;63.30
45207;DHT22;30950;53.086;21.576;2022-07-01T10:00:12;33.20;63.20
45207;DHT22;30950;53.086;21.576;2022-07-01T10:02:39;33.30;63.40
45207;DHT22;30950;53.086;21.576;2022-07-01T10:05:09;33.30;63.30
45207;DHT22;30950;53.086;21.576;2022-07-01T10:10:48;33.40;62.30
45207;DHT22;30950;53.086;21.576;2022-07-01T10:13:17;33.60;61.60
45207;DHT22;30950;53.086;21.576;2022-07-01T10:15:46;33.70;61.40
45207;DHT22;30950;53.086;21.576;2022-07-01T10:18:22;33.70;61.30
45207;DHT22;30950;53.086;21.576;2022-07-01T10:20:51;33.80;60.70
45207;DHT22;30950;53.086;21.576;2022-07-01T10:23:24;33.90;60.90
45207;DHT22;30950;53.086;21.576;2022-07-01T10:25:53;33.90;60.30
45207;DHT22;30950;53.086;21.576;2022-07-01T10:30:52;34.20;60.70
45207;DHT22;30950;53.086;21.576;2022-07-01T10:36:16;34.90;59.20
45207;DHT22;30950;53.086;21.576;2022-07-01T10:41:38;35.80;58.10
45207;DHT22;30950;53.086;21.576;2022-07-01T10:44:12;36.20;57.50
45207;DHT22;30950;53.086;21.576;2022-07-01T10:46:52;36.50;55.80
45207;DHT22;30950;53.086;21.576;2022-07-01T10:59:49;36.20;53.80
45207;DHT22;30950;53.086;21.576;2022-07-01T11:04:51;35.70;53.40
45207;DHT22;30950;53.086;21.576;2022-07-01T11:07:20;35.50;54.20
45207;DHT22;30950;53.086;21.576;2022-07-01T11:09:50;35.40;54.60
45207;DHT22;30950;53.086;21.576;2022-07-01T11:12:20;35.30;55.00
45207;DHT22;30950;53.086;21.576;2022-07-01T11:14:49;35.30;55.50
45207;DHT22;30950;53.086;21.576;2022-07-01T11:17:17;35.10;55.40
45207;DHT22;30950;53.086;21.576;2022-07-01T11:19:58;35.10;56.20
45207;DHT22;30950;53.086;21.576;2022-07-01T11:22:30;35.10;56.20
45207;DHT22;30950;53.086;21.576;2022-07-01T11:25:09;35.10;56.40
45207;DHT22;30950;53.086;21.576;2022-07-01T11:27:37;35.00;56.30
45207;DHT22;30950;53.086;21.576;2022-07-01T11:30:07;34.90;56.20
45207;DHT22;30950;53.086;21.576;2022-07-01T11:32:39;34.80;56.30
45207;DHT22;30950;53.086;21.576;2022-07-01T11:35:16;34.80;56.70
45207;DHT22;30950;53.086;21.576;2022-07-01T11:38:18;34.80;57.20
45207;DHT22;30950;53.086;21.576;2022-07-01T11:41:07;34.90;56.70
45207;DHT22;30950;53.086;21.576;2022-07-01T11:43:39;34.90;56.70
45207;DHT22;30950;53.086;21.576;2022-07-01T11:46:07;34.90;56.90
45207;DHT22;30950;53.086;21.576;2022-07-01T11:48:43;35.00;56.70
45207;DHT22;30950;53.086;21.576;2022-07-01T11:51:16;35.00;56.40
45207;DHT22;30950;53.086;21.576;2022-07-01T11:53:46;35.00;56.30
45207;DHT22;30950;53.086;21.576;2022-07-01T11:56:17;35.00;56.70
45207;DHT22;30950;53.086;21.576;2022-07-01T11:58:55;35.00;56.50
45207;DHT22;30950;53.086;21.576;2022-07-01T12:01:41;35.00;57.10
45207;DHT22;30950;53.086;21.576;2022-07-01T12:04:09;35.10;56.80
45207;DHT22;30950;53.086;21.576;2022-07-01T12:06:37;35.20;55.50
45207;DHT22;30950;53.086;21.576;2022-07-01T12:09:06;35.30;55.10
45207;DHT22;30950;53.086;21.576;2022-07-01T12:11:38;35.30;54.90
45207;DHT22;30950;53.086;21.576;2022-07-01T12:14:06;35.40;54.30
45207;DHT22;30950;53.086;21.576;2022-07-01T12:16:40;35.40;53.70
45207;DHT22;30950;53.086;21.576;2022-07-01T12:19:08;35.50;53.60
45207;DHT22;30950;53.086;21.576;2022-07-01T12:21:51;35.50;53.80
45207;DHT22;30950;53.086;21.576;2022-07-01T12:24:19;35.70;53.80
45207;DHT22;30950;53.086;21.576;2022-07-01T12:29:28;35.90;52.60
45207;DHT22;30950;53.086;21.576;2022-07-01T12:32:04;36.00;53.20
45207;DHT22;30950;53.086;21.576;2022-07-01T12:34:48;36.30;53.40
45207;DHT22;30950;53.086;21.576;2022-07-01T12:37:25;36.60;52.90
45207;DHT22;30950;53.086;21.576;2022-07-01T12:39:57;37.10;53.40
45207;DHT22;30950;53.086;21.576;2022-07-01T12:42:37;37.70;52.60
45207;DHT22;30950;53.086;21.576;2022-07-01T12:45:12;38.20;50.90
45207;DHT22;30950;53.086;21.576;2022-07-01T12:47:43;38.70;49.50
45207;DHT22;30950;53.086;21.576;2022-07-01T12:50:18;38.70;48.80
45207;DHT22;30950;53.086;21.576;2022-07-01T12:53:07;38.90;49.10
45207;DHT22;30950;53.086;21.576;2022-07-01T12:58:06;39.80;48.90
45207;DHT22;30950;53.086;21.576;2022-07-01T13:00:33;40.10;47.10
45207;DHT22;30950;53.086;21.576;2022-07-01T13:03:02;40.30;46.60
45207;DHT22;30950;53.086;21.576;2022-07-01T13:05:32;40.50;46.50
45207;DHT22;30950;53.086;21.576;2022-07-01T13:08:00;40.60;46.60
45207;DHT22;30950;53.086;21.576;2022-07-01T13:10:28;40.80;46.40
45207;DHT22;30950;53.086;21.576;2022-07-01T13:12:56;41.10;45.50
45207;DHT22;30950;53.086;21.576;2022-07-01T13:15:23;41.20;44.80
45207;DHT22;30950;53.086;21.576;2022-07-01T13:17:51;41.30;44.10
45207;DHT22;30950;53.086;21.576;2022-07-01T13:20:19;41.20;44.10
45207;DHT22;30950;53.086;21.576;2022-07-01T13:22:46;41.20;44.60
45207;DHT22;30950;53.086;21.576;2022-07-01T13:25:14;41.30;43.80
45207;DHT22;30950;53.086;21.576;2022-07-01T13:27:42;41.10;43.60
45207;DHT22;30950;53.086;21.576;2022-07-01T13:30:11;41.10;43.10
45207;DHT22;30950;53.086;21.576;2022-07-01T13:32:39;41.00;43.40
45207;DHT22;30950;53.086;21.576;2022-07-01T13:35:08;41.00;43.60
45207;DHT22;30950;53.086;21.576;2022-07-01T13:37:36;41.00;43.20
45207;DHT22;30950;53.086;21.576;2022-07-01T13:40:04;41.00;43.80
45207;DHT22;30950;53.086;21.576;2022-07-01T13:42:31;41.10;43.40
45207;DHT22;30950;53.086;21.576;2022-07-01T13:44:59;41.30;43.20
45207;DHT22;30950;53.086;21.576;2022-07-01T13:47:26;41.50;43.20
45207;DHT22;30950;53.086;21.576;2022-07-01T13:49:53;41.70;42.80
45207;DHT22;30950;53.086;21.576;2022-07-01T13:52:20;41.90;42.70
45207;DHT22;30950;53.086;21.576;2022-07-01T13:54:48;41.90;42.00
45207;DHT22;30950;53.086;21.576;2022-07-01T13:57:17;41.90;42.20
45207;DHT22;30950;53.086;21.576;2022-07-01T13:59:45;41.90;41.80
45207;DHT22;30950;53.086;21.576;2022-07-01T14:02:13;42.00;42.20
45207;DHT22;30950;53.086;21.576;2022-07-01T14:04:40;41.90;41.60
45207;DHT22;30950;53.086;21.576;2022-07-01T14:07:07;41.80;41.60
45207;DHT22;30950;53.086;21.576;2022-07-01T14:09:35;41.80;41.50
45207;DHT22;30950;53.086;21.576;2022-07-01T14:12:04;41.80;41.50
45207;DHT22;30950;53.086;21.576;2022-07-01T14:14:38;41.80;41.90
45207;DHT22;30950;53.086;21.576;2022-07-01T14:17:05;41.80;41.60
45207;DHT22;30950;53.086;21.576;2022-07-01T14:19:32;41.80;41.80
45207;DHT22;30950;53.086;21.576;2022-07-01T14:22:01;42.00;42.10
45207;DHT22;30950;53.086;21.576;2022-07-01T14:24:28;42.20;41.30
45207;DHT22;30950;53.086;21.576;2022-07-01T14:26:55;42.30;41.00
45207;DHT22;30950;53.086;21.576;2022-07-01T14:29:22;42.40;41.30
45207;DHT22;30950;53.086;21.576;2022-07-01T14:31:50;42.40;41.10
45207;DHT22;30950;53.086;21.576;2022-07-01T14:34:17;42.40;40.10
45207;DHT22;30950;53.086;21.576;2022-07-01T14:36:45;42.10;40.20
45207;DHT22;30950;53.086;21.576;2022-07-01T14:39:12;41.90;40.40
45207;DHT22;30950;53.086;21.576;2022-07-01T14:41:39;41.80;40.40
45207;DHT22;30950;53.086;21.576;2022-07-01T14:44:07;41.70;40.60
45207;DHT22;30950;53.086;21.576;2022-07-01T14:46:34;41.50;40.60
45207;DHT22;30950;53.086;21.576;2022-07-01T14:49:01;41.40;40.90
45207;DHT22;30950;53.086;21.576;2022-07-01T14:51:28;41.50;41.40
45207;DHT22;30950;53.086;21.576;2022-07-01T14:53:56;41.40;41.00
45207;DHT22;30950;53.086;21.576;2022-07-01T14:56:23;41.40;41.10
45207;DHT22;30950;53.086;21.576;2022-07-01T14:58:51;41.30;40.80
45207;DHT22;30950;53.086;21.576;2022-07-01T15:01:18;41.30;41.10
45207;DHT22;30950;53.086;21.576;2022-07-01T15:03:45;41.20;40.90
45207;DHT22;30950;53.086;21.576;2022-07-01T15:06:13;41.10;40.70
45207;DHT22;30950;53.086;21.576;2022-07-01T15:08:40;41.00;41.10
45207;DHT22;30950;53.086;21.576;2022-07-01T15:11:09;40.90;41.10
45207;DHT22;30950;53.086;21.576;2022-07-01T15:13:36;40.80;41.30
45207;DHT22;30950;53.086;21.576;2022-07-01T15:16:05;40.80;41.40
45207;DHT22;30950;53.086;21.576;2022-07-01T15:18:37;40.70;41.20
45207;DHT22;30950;53.086;21.576;2022-07-01T15:21:05;40.70;41.80
45207;DHT22;30950;53.086;21.576;2022-07-01T15:23:32;40.70;41.40
45207;DHT22;30950;53.086;21.576;2022-07-01T15:25:59;40.70;41.60
45207;DHT22;30950;53.086;21.576;2022-07-01T15:28:27;40.80;41.60
45207;DHT22;30950;53.086;21.576;2022-07-01T15:30:54;41.00;41.30
45207;DHT22;30950;53.086;21.576;2022-07-01T15:33:21;41.00;41.20
45207;DHT22;30950;53.086;21.576;2022-07-01T15:35:48;40.90;40.90
45207;DHT22;30950;53.086;21.576;2022-07-01T15:38:16;40.80;41.10
45207;DHT22;30950;53.086;21.576;2022-07-01T15:40:43;40.80;41.20
45207;DHT22;30950;53.086;21.576;2022-07-01T15:43:12;40.70;41.30
45207;DHT22;30950;53.086;21.576;2022-07-01T15:45:41;40.60;41.30
45207;DHT22;30950;53.086;21.576;2022-07-01T15:48:08;40.50;41.40
45207;DHT22;30950;53.086;21.576;2022-07-01T15:50:41;40.40;41.20
45207;DHT22;30950;53.086;21.576;2022-07-01T15:53:09;40.20;41.30
45207;DHT22;30950;53.086;21.576;2022-07-01T15:55:38;40.10;41.50
45207;DHT22;30950;53.086;21.576;2022-07-01T15:58:11;39.90;41.70
45207;DHT22;30950;53.086;21.576;2022-07-01T16:00:44;39.90;41.90